Time;durP1;ratioP1;P1;durP2;ratioP2;P2;SDS_P1;SDS_P2;PMS_P1;PMS_P2;Temp;Humidity;BMP_temperature;BMP_pressure;BME280_temperature;BME280_humidity;BME280_pressure;Samples;Min_cycle;Max_cycle;Signal;HPM_P1;HPM_P2
2022/11/07 00:02:21;;;;;;;9.80;5.20;;;;;;;18.37;51.37;101420.98;102136;1325;61341;-82
2022/11/07 00:04:46;;;;;;;10.60;5.70;;;;;;;18.38;51.37;101421.13;102056;1326;61385;-82
2022/11/07 00:07:12;;;;;;;8.00;5.00;;;;;;;18.37;51.43;101421.69;102041;1332;61488;-82
2022/11/07 00:09:37;;;;;;;10.20;5.80;;;;;;;18.37;51.35;101425.77;102017;1333;62512;-83
2022/11/07 00:12:03;;;;;;;8.40;5.90;;;;;;;18.38;51.36;101429.16;102091;1324;61323;-83
2022/11/07 00:14:28;;;;;;;9.40;5.40;;;;;;;18.37;51.33;101429.52;102105;1329;61294;-82
2022/11/07 00:16:54;;;;;;;10.40;5.50;;;;;;;18.37;51.29;101430.05;102096;1326;61395;-82
2022/11/07 00:19:20;;;;;;;9.90;5.50;;;;;;;18.37;51.26;101433.27;102088;1330;61330;-83
2022/11/07 00:21:46;;;;;;;9.80;5.70;;;;;;;18.37;51.36;101432.55;102043;1329;61308;-82
2022/11/07 00:24:16;;;;;;;10.40;5.60;;;;;;;18.38;51.39;101432.20;101960;1326;61175;-82
2022/11/07 00:26:42;;;;;;;9.80;5.70;;;;;;;18.38;51.38;101429.33;102064;1329;61349;-83
2022/11/07 00:29:16;;;;;;;10.80;6.00;;;;;;;18.37;51.34;101427.91;102005;1319;61388;-82
2022/11/07 00:31:44;;;;;;;9.00;5.80;;;;;;;18.37;51.29;101430.60;102032;1328;75736;-83
2022/11/07 00:34:10;;;;;;;9.40;5.50;;;;;;;18.37;51.21;101431.50;102091;1326;61183;-83
2022/11/07 00:36:35;;;;;;;10.00;5.80;;;;;;;18.37;51.34;101428.83;101954;1329;61785;-83
2022/11/07 00:39:01;;;;;;;9.60;5.40;;;;;;;18.37;51.17;101430.98;102041;1327;62904;-83
2022/11/07 00:41:26;;;;;;;11.50;5.80;;;;;;;18.37;51.19;101429.38;102060;1326;61833;-82
2022/11/07 00:43:52;;;;;;;9.20;5.30;;;;;;;18.37;51.13;101430.27;102046;1324;61162;-82
2022/11/07 00:46:18;;;;;;;10.70;5.70;;;;;;;18.37;51.22;101428.10;102004;1326;61393;-83
2022/11/07 00:48:44;;;;;;;9.60;6.00;;;;;;;18.37;51.10;101427.95;102044;1329;61321;-83
2022/11/07 00:51:11;;;;;;;9.60;6.00;;;;;;;18.37;50.98;101427.05;102025;1329;61273;-83
2022/11/07 00:53:37;;;;;;;8.30;5.70;;;;;;;18.37;51.05;101427.75;102018;1329;61521;-83
2022/11/07 00:56:07;;;;;;;9.80;5.80;;;;;;;18.37;51.14;101425.96;102052;1329;61406;-82
2022/11/07 00:58:33;;;;;;;9.60;5.50;;;;;;;18.37;51.16;101424.39;102055;1329;61309;-83
2022/11/07 01:00:58;;;;;;;12.30;5.60;;;;;;;18.36;51.17;101423.68;102118;1330;61363;-83
2022/11/07 01:06:08;;;;;;;8.70;5.60;;;;;;;18.36;51.15;101419.95;102088;1325;61216;-83
2022/11/07 01:08:34;;;;;;;8.80;5.60;;;;;;;18.36;51.01;101420.48;101967;1329;61350;-83
2022/11/07 01:11:05;;;;;;;10.20;5.70;;;;;;;18.36;50.94;101421.20;102099;1330;61350;-83
2022/11/07 01:13:31;;;;;;;10.10;6.00;;;;;;;18.37;51.19;101423.50;102052;1329;75956;-83
2022/11/07 01:15:56;;;;;;;8.20;5.60;;;;;;;18.37;51.04;101422.61;102055;1326;61325;-83
2022/11/07 01:18:22;;;;;;;12.10;6.10;;;;;;;18.36;50.99;101418.17;102070;1327;61392;-82
2022/11/07 01:20:48;;;;;;;10.70;5.90;;;;;;;18.36;51.01;101416.40;102095;1330;61328;-83
2022/11/07 01:23:14;;;;;;;9.40;5.80;;;;;;;18.36;50.95;101413.89;101980;1327;61319;-83
2022/11/07 01:25:40;;;;;;;10.90;6.00;;;;;;;18.36;51.11;101414.06;102046;1329;61210;-83
2022/11/07 01:28:06;;;;;;;10.40;6.00;;;;;;;18.36;51.07;101412.28;102101;1330;59318;-83
2022/11/07 01:30:31;;;;;;;9.20;5.70;;;;;;;18.36;50.97;101410.88;102059;1328;61349;-82
2022/11/07 01:32:57;;;;;;;8.80;5.20;;;;;;;18.36;51.18;101414.61;102037;1329;61357;-83
2022/11/07 01:35:23;;;;;;;9.60;5.20;;;;;;;18.36;50.99;101414.11;101953;1336;61442;-83
2022/11/07 01:37:48;;;;;;;10.20;6.00;;;;;;;18.35;51.01;101415.55;102045;1329;61386;-82
2022/11/07 01:40:14;;;;;;;9.70;5.90;;;;;;;18.37;50.93;101415.33;102094;1329;61348;-82
2022/11/07 01:42:39;;;;;;;10.40;6.10;;;;;;;18.36;50.96;101411.06;102112;1326;61179;-82
2022/11/07 01:45:05;;;;;;;7.70;5.60;;;;;;;18.36;50.97;101414.80;101990;1327;61292;-83
2022/11/07 01:47:33;;;;;;;9.70;6.00;;;;;;;18.36;50.94;101413.90;102086;1326;61381;-82
2022/11/07 01:49:59;;;;;;;10.30;5.70;;;;;;;18.36;50.99;101421.94;102060;1319;61347;-82
2022/11/07 01:52:38;;;;;;;9.20;5.80;;;;;;;18.36;50.96;101424.59;102039;1321;61341;-82
2022/11/07 01:55:16;;;;;;;9.50;5.80;;;;;;;18.36;51.04;101423.90;102094;1326;73524;-84
2022/11/07 01:57:54;;;;;;;9.70;5.90;;;;;;;18.35;50.87;101423.38;102095;1332;74606;-83
2022/11/07 02:00:21;;;;;;;9.00;5.30;;;;;;;18.36;50.92;101425.33;101999;1326;61326;-82
2022/11/07 02:02:48;;;;;;;10.30;6.40;;;;;;;18.36;50.74;101426.40;101983;1332;61153;-82
2022/11/07 02:05:20;;;;;;;10.10;5.70;;;;;;;18.36;50.97;101426.58;102095;1330;72733;-81
2022/11/07 02:07:45;;;;;;;11.90;6.30;;;;;;;18.36;50.85;101431.04;102095;1323;75612;-81
2022/11/07 02:10:11;;;;;;;8.70;5.90;;;;;;;18.36;50.79;101435.13;102032;1330;61443;-82
2022/11/07 02:12:36;;;;;;;9.50;5.90;;;;;;;18.36;50.90;101435.31;102036;1329;61487;-83
2022/11/07 02:15:02;;;;;;;9.90;5.80;;;;;;;18.36;50.86;101432.98;101947;1335;61337;-82
2022/11/07 02:17:28;;;;;;;12.10;6.10;;;;;;;18.36;50.81;101427.29;101982;1329;61348;-82
2022/11/07 02:19:55;;;;;;;8.90;5.60;;;;;;;18.36;50.91;101429.27;101944;1326;75455;-84
2022/11/07 02:22:33;;;;;;;9.50;5.50;;;;;;;18.36;50.69;101426.20;102020;1326;61295;-83
2022/11/07 02:25:00;;;;;;;11.40;5.70;;;;;;;18.35;50.76;101421.60;102022;1326;61836;-82
2022/11/07 02:27:28;;;;;;;10.10;6.00;;;;;;;18.35;50.81;101423.92;102051;1333;72622;-83
2022/11/07 02:29:59;;;;;;;10.30;5.90;;;;;;;18.35;50.82;101423.58;102029;1328;75732;-82
2022/11/07 02:32:25;;;;;;;10.40;6.40;;;;;;;18.35;50.81;101426.61;101859;1331;61653;-83
2022/11/07 02:34:58;;;;;;;10.70;6.30;;;;;;;18.36;50.70;101424.98;102067;1326;61266;-82
2022/11/07 02:37:35;;;;;;;10.40;6.20;;;;;;;18.35;50.81;101425.53;102042;1326;73599;-82
2022/11/07 02:40:04;;;;;;;10.40;6.10;;;;;;;18.35;50.88;101422.52;102043;1329;75632;-82
2022/11/07 02:42:42;;;;;;;;;;;;;;;18.35;50.71;101418.42;102107;1332;61470;-82
2022/11/07 02:45:27;;;;;;;9.70;6.10;;;;;;;18.32;50.86;101418.55;102053;1326;61194;-82
2022/11/07 02:47:52;;;;;;;9.50;6.20;;;;;;;18.34;50.80;101415.63;102089;1326;73584;-82
2022/11/07 02:50:18;;;;;;;9.40;6.10;;;;;;;18.33;50.74;101421.36;102124;1324;59415;-82
2022/11/07 02:52:43;;;;;;;9.30;6.10;;;;;;;18.34;50.76;101420.27;102064;1327;61350;-82
2022/11/07 02:55:09;;;;;;;8.90;6.20;;;;;;;18.33;50.78;101421.18;102077;1326;61298;-82
2022/11/07 02:57:36;;;;;;;10.20;6.40;;;;;;;18.34;50.81;101426.13;101987;1329;61330;-82
2022/11/07 03:00:03;;;;;;;8.60;5.90;;;;;;;18.33;50.88;101424.73;102031;1333;61278;-83
2022/11/07 03:02:28;;;;;;;9.50;6.50;;;;;;;18.34;50.73;101428.27;102004;1333;61213;-83
2022/11/07 03:04:54;;;;;;;11.20;6.20;;;;;;;18.34;50.74;101428.65;102077;1332;61418;-83
2022/11/07 03:07:19;;;;;;;9.30;5.90;;;;;;;18.34;50.67;101436.27;102025;1326;61325;-82
2022/11/07 03:09:45;;;;;;;10.80;6.40;;;;;;;18.34;50.55;101433.63;102096;1326;61405;-82
2022/11/07 03:12:10;;;;;;;11.60;6.70;;;;;;;18.34;50.63;101435.39;101941;1329;61297;-82
2022/11/07 03:14:36;;;;;;;10.50;6.40;;;;;;;18.34;50.61;101438.80;102041;1330;61459;-83
2022/11/07 03:17:01;;;;;;;10.90;6.70;;;;;;;18.34;50.54;101443.05;101994;1326;61297;-83
2022/11/07 03:19:27;;;;;;;12.10;6.40;;;;;;;18.34;50.57;101448.59;102092;1333;61255;-83
2022/11/07 03:21:52;;;;;;;11.10;6.40;;;;;;;18.34;50.42;101448.04;102008;1333;61412;-82
2022/11/07 03:24:18;;;;;;;9.30;6.30;;;;;;;18.34;50.65;101451.09;102022;1333;61310;-82
2022/11/07 03:26:43;;;;;;;9.30;6.20;;;;;;;18.33;50.53;101446.12;101947;1333;61348;-83
2022/11/07 03:29:09;;;;;;;8.20;6.50;;;;;;;18.34;50.51;101446.07;102122;1326;61410;-82
2022/11/07 03:31:35;;;;;;;8.70;6.40;;;;;;;18.34;50.49;101443.58;102092;1326;61360;-82
2022/11/07 03:34:00;;;;;;;10.50;6.90;;;;;;;18.34;50.56;101445.72;102061;1319;61376;-82
2022/11/07 03:36:26;;;;;;;10.00;6.70;;;;;;;18.34;50.42;101443.25;102033;1322;61270;-82
2022/11/07 03:38:51;;;;;;;9.50;6.10;;;;;;;18.34;50.58;101445.72;101989;1333;61474;-82
2022/11/07 03:41:17;;;;;;;11.90;6.20;;;;;;;18.34;50.44;101445.90;102074;1330;61328;-83
2022/11/07 03:43:46;;;;;;;10.40;6.50;;;;;;;18.34;50.41;101447.14;102082;1326;61224;-83
2022/11/07 03:46:12;;;;;;;10.20;6.70;;;;;;;18.34;50.35;101441.65;102100;1332;71658;-83
2022/11/07 03:48:38;;;;;;;12.30;6.80;;;;;;;18.34;50.36;101438.80;102021;1333;61328;-83
2022/11/07 03:51:04;;;;;;;9.90;6.70;;;;;;;18.34;50.36;101436.48;102047;1329;60675;-82
2022/11/07 03:53:29;;;;;;;9.40;6.40;;;;;;;18.33;50.33;101438.63;102025;1330;61156;-82
2022/11/07 03:55:55;;;;;;;10.40;6.40;;;;;;;18.34;50.43;101433.97;101971;1332;61479;-82
2022/11/07 03:58:22;;;;;;;9.50;6.70;;;;;;;18.33;50.35;101434.52;102046;1334;61277;-82
2022/11/07 04:00:47;;;;;;;9.80;6.60;;;;;;;18.34;50.29;101431.84;101965;1329;61184;-82
2022/11/07 04:03:13;;;;;;;11.10;6.60;;;;;;;18.34;50.35;101433.98;102040;1334;61405;-82
2022/11/07 04:05:38;;;;;;;12.10;7.30;;;;;;;18.33;50.30;101428.83;102088;1326;61098;-82
2022/11/07 04:08:04;;;;;;;10.80;6.10;;;;;;;18.33;50.22;101430.44;102150;1330;61335;-82
2022/11/07 04:10:29;;;;;;;9.70;6.50;;;;;;;18.33;50.40;101432.23;101966;1329;61333;-83
2022/11/07 04:18:24;;;;;;;9.80;6.70;;;;;;;18.33;50.35;101431.36;102043;1334;73467;-82
2022/11/07 04:20:49;;;;;;;9.70;6.50;;;;;;;18.32;50.36;101433.15;102053;1329;61338;-82
2022/11/07 04:23:15;;;;;;;9.50;6.70;;;;;;;18.32;50.14;101429.25;102093;1332;61318;-82
2022/11/07 04:28:26;;;;;;;10.50;6.60;;;;;;;18.32;50.38;101433.15;102076;1332;73976;-83
2022/11/07 04:30:51;;;;;;;12.50;6.90;;;;;;;18.32;50.23;101432.45;102018;1333;61313;-82
2022/11/07 04:33:17;;;;;;;12.70;6.70;;;;;;;18.32;50.20;101432.27;102051;1329;61386;-83
2022/11/07 04:35:42;;;;;;;8.30;6.00;;;;;;;18.32;50.18;101432.10;102029;1328;61408;-83
2022/11/07 04:38:08;;;;;;;11.00;7.20;;;;;;;18.32;50.19;101430.34;102151;1326;61520;-82
2022/11/07 04:40:33;;;;;;;9.00;6.70;;;;;;;18.32;50.33;101431.05;102086;1327;74035;-82
2022/11/07 04:42:59;;;;;;;10.10;6.80;;;;;;;18.32;50.16;101431.23;102064;1326;59881;-82
2022/11/07 04:45:24;;;;;;;12.40;7.20;;;;;;;18.32;50.19;101435.69;101959;1329;61322;-82
2022/11/07 04:47:50;;;;;;;12.40;7.20;;;;;;;18.33;50.23;101435.63;102047;1332;61837;-83
2022/11/07 04:50:16;;;;;;;11.40;6.90;;;;;;;18.32;50.21;101436.92;102051;1328;61366;-82
2022/11/07 04:52:42;;;;;;;10.70;7.10;;;;;;;18.32;50.26;101435.14;101995;1332;72396;-82
2022/11/07 04:55:09;;;;;;;11.30;6.80;;;;;;;18.32;50.11;101438.90;102032;1332;61283;-82
2022/11/07 04:57:34;;;;;;;9.50;6.60;;;;;;;18.32;50.08;101435.69;102059;1335;61424;-81
2022/11/07 05:00:00;;;;;;;10.60;7.30;;;;;;;18.32;50.07;101438.90;101956;1333;61325;-82
2022/11/07 05:02:25;;;;;;;10.10;6.80;;;;;;;18.32;50.17;101441.54;102064;1329;61294;-82
2022/11/07 05:04:51;;;;;;;9.00;5.80;;;;;;;18.31;49.96;101441.61;102004;1326;61221;-83
2022/11/07 05:07:17;;;;;;;9.80;6.40;;;;;;;18.30;50.16;101440.58;101975;1329;75296;-82
2022/11/07 05:09:43;;;;;;;10.90;6.20;;;;;;;18.30;50.10;101441.51;102092;1333;61340;-82
2022/11/07 05:12:08;;;;;;;11.30;6.80;;;;;;;18.29;49.98;101442.98;102048;1331;61840;-82
2022/11/07 05:14:34;;;;;;;10.70;7.00;;;;;;;18.27;49.95;101443.39;102072;1330;61411;-83
2022/11/07 05:17:00;;;;;;;13.00;7.20;;;;;;;18.27;49.88;101449.27;102070;1330;61307;-82
2022/11/07 05:19:25;;;;;;;11.40;6.70;;;;;;;18.27;50.06;101452.67;102088;1334;61414;-82
2022/11/07 05:23:10;;;;;;;13.10;6.60;;;;;;;18.26;49.84;101460.73;102073;1332;62042;-82
2022/11/07 05:24:37;;;;;;;14.70;6.50;;;;;;;18.20;49.89;101459.05;101969;1316;61300;-81
2022/11/07 05:27:03;;;;;;;18.00;6.80;;;;;;;18.16;49.77;101460.34;101885;1321;61222;-81
2022/11/07 05:29:28;;;;;;;15.20;6.90;;;;;;;18.13;49.70;101466.34;101962;1321;62006;-82
2022/11/07 05:31:54;;;;;;;12.70;6.80;;;;;;;18.11;49.95;101469.82;102029;1320;61279;-82
2022/11/07 05:34:46;;;;;;;11.20;6.70;;;;;;;18.11;49.76;101473.56;102040;1322;61321;-81
2022/11/07 05:37:11;;;;;;;13.90;6.90;;;;;;;18.09;49.97;101474.70;101586;1325;72568;-82
2022/11/07 05:39:38;;;;;;;17.00;6.90;;;;;;;18.08;49.88;101471.94;101554;1325;73423;-82
2022/11/07 05:42:03;;;;;;;15.00;7.50;;;;;;;18.03;49.65;101473.21;101605;1338;61373;-82
2022/11/07 05:44:29;;;;;;;15.30;7.40;;;;;;;17.84;49.69;101473.90;101655;1323;61383;-82
2022/11/07 05:46:55;;;;;;;15.90;7.50;;;;;;;17.66;49.83;101479.39;101530;1327;61313;-81
2022/11/07 05:49:21;;;;;;;13.70;7.30;;;;;;;17.59;49.97;101485.72;101597;1321;61403;-81
2022/11/07 05:51:46;;;;;;;18.30;7.40;;;;;;;17.56;49.94;101482.32;101108;1325;681803;-81
2022/11/07 05:54:12;;;;;;;18.80;7.30;;;;;;;17.56;50.10;101489.60;101472;1326;61190;-81
2022/11/07 05:56:37;;;;;;;15.50;6.90;;;;;;;17.53;49.96;101491.35;101540;1319;61344;-81
2022/11/07 05:59:03;;;;;;;14.40;7.10;;;;;;;17.54;49.97;101497.00;101618;1324;61460;-82
2022/11/07 06:01:30;;;;;;;15.20;6.90;;;;;;;17.51;49.98;101499.29;101548;1323;59285;-82
2022/11/07 06:03:56;;;;;;;14.60;7.70;;;;;;;17.46;50.22;101507.69;100903;1325;61335;-82
2022/11/07 06:06:21;;;;;;;19.70;7.80;;;;;;;17.45;50.20;101510.42;101664;1325;61438;-82
2022/11/07 06:08:47;;;;;;;13.00;7.50;;;;;;;17.43;50.24;101516.88;101557;1326;61313;-80
2022/11/07 06:11:13;;;;;;;19.60;7.30;;;;;;;17.43;50.30;101520.79;101621;1332;73471;-81
2022/11/07 06:13:38;;;;;;;14.70;7.40;;;;;;;17.48;50.49;101524.16;101661;1327;59427;-81
2022/11/07 06:16:04;;;;;;;13.70;7.90;;;;;;;17.53;50.47;101524.46;101914;1320;59443;-80
2022/11/07 06:18:29;;;;;;;16.50;7.60;;;;;;;17.60;50.62;101527.53;101743;1320;61403;-81
2022/11/07 06:20:55;;;;;;;16.20;7.40;;;;;;;17.65;50.63;101529.11;101633;1319;61384;-80
2022/11/07 06:23:21;;;;;;;12.70;6.90;;;;;;;17.65;50.52;101529.27;101688;1312;61114;-79
2022/11/07 06:25:46;;;;;;;18.60;7.70;;;;;;;17.64;50.32;101532.35;101767;1321;61298;-82
2022/11/07 06:28:12;;;;;;;15.20;7.00;;;;;;;17.60;50.27;101537.13;101898;1317;61377;-81
2022/11/07 06:30:38;;;;;;;14.40;7.00;;;;;;;17.63;50.43;101543.62;101882;1328;61458;-80
2022/11/07 06:33:05;;;;;;;12.30;6.40;;;;;;;17.65;50.34;101546.88;101878;1310;61308;-80
2022/11/07 06:35:31;;;;;;;14.40;7.20;;;;;;;17.68;50.23;101553.71;102040;1321;59777;-80
2022/11/07 06:38:03;;;;;;;10.20;6.00;;;;;;;17.70;50.09;101559.13;101789;1317;61384;-81
2022/11/07 06:40:29;;;;;;;12.60;6.10;;;;;;;17.74;50.12;101559.84;101857;1318;61318;-82
2022/11/07 06:42:54;;;;;;;12.40;6.30;;;;;;;17.76;49.89;101561.36;101920;1321;60701;-81
2022/11/07 06:45:21;;;;;;;14.10;6.50;;;;;;;17.78;50.04;101559.64;101956;1318;59217;-81
2022/11/07 06:47:46;;;;;;;11.80;6.50;;;;;;;17.83;49.98;101560.88;101918;1313;61317;-82
2022/11/07 06:50:12;;;;;;;11.60;6.80;;;;;;;17.86;49.78;101563.21;102062;1313;61320;-81
2022/11/07 06:52:37;;;;;;;16.60;6.90;;;;;;;17.86;49.77;101561.95;102051;1317;59979;-81
2022/11/07 06:55:03;;;;;;;12.10;6.70;;;;;;;17.80;49.59;101565.27;102163;1316;72836;-81
2022/11/07 06:57:29;;;;;;;14.70;6.70;;;;;;;17.73;49.62;101570.55;102055;1316;61331;-81
2022/11/07 06:59:54;;;;;;;14.10;6.60;;;;;;;17.70;49.65;101569.63;102025;1310;61414;-82
2022/11/07 07:02:20;;;;;;;16.20;7.10;;;;;;;17.65;49.61;101574.30;101910;1313;61655;-82
2022/11/07 07:04:46;;;;;;;13.10;6.30;;;;;;;17.65;49.61;101578.75;101997;1313;61492;-82
2022/11/07 07:07:12;;;;;;;13.60;6.90;;;;;;;17.67;49.59;101581.52;102012;1319;61276;-81
2022/11/07 07:09:37;;;;;;;14.10;6.50;;;;;;;17.61;49.46;101578.59;101964;1319;59855;-82
2022/11/07 07:12:03;;;;;;;17.50;7.30;;;;;;;17.63;49.62;101581.52;101891;1312;61384;-82
2022/11/07 07:14:29;;;;;;;13.40;6.90;;;;;;;17.68;49.63;101583.43;102008;1318;61942;-82
2022/11/07 07:16:57;;;;;;;15.90;7.10;;;;;;;17.72;49.81;101585.56;101951;1321;61811;-83
2022/11/07 07:19:23;;;;;;;11.80;7.00;;;;;;;17.74;49.76;101579.09;101962;1311;74665;-82
2022/11/07 07:21:50;;;;;;;13.00;6.60;;;;;;;17.74;49.74;101580.48;101974;1309;61423;-83
2022/11/07 07:24:16;;;;;;;14.60;6.40;;;;;;;17.76;49.77;101576.50;101966;1316;61420;-81
2022/11/07 07:26:41;;;;;;;15.70;6.90;;;;;;;17.74;49.67;101575.70;101961;1316;60225;-82
2022/11/07 07:29:07;;;;;;;13.40;6.70;;;;;;;17.74;49.75;101579.42;101918;1317;61286;-82
2022/11/07 07:31:32;;;;;;;14.50;6.80;;;;;;;17.72;49.69;101573.98;101973;1309;61485;-81
2022/11/07 07:33:58;;;;;;;11.20;6.80;;;;;;;17.73;49.67;101578.21;101908;1320;61368;-82
2022/11/07 07:36:24;;;;;;;13.90;6.30;;;;;;;17.73;49.54;101584.08;101834;1313;61472;-81
2022/11/07 07:38:49;;;;;;;14.60;7.20;;;;;;;17.72;49.45;101585.90;101933;1321;61306;-81
2022/11/07 07:41:16;;;;;;;12.60;6.40;;;;;;;17.74;49.56;101589.73;101954;1316;59636;-81
2022/11/07 07:43:41;;;;;;;12.50;6.70;;;;;;;17.71;49.54;101586.31;101889;1319;61272;-81
2022/11/07 07:46:07;;;;;;;12.00;6.30;;;;;;;17.72;49.64;101589.10;101994;1318;59639;-81
2022/11/07 07:48:32;;;;;;;9.70;6.20;;;;;;;17.74;49.50;101593.29;102024;1316;61306;-82
2022/11/07 07:50:58;;;;;;;15.70;6.30;;;;;;;17.74;49.43;101594.02;101993;1317;71700;-82
2022/11/07 07:53:24;;;;;;;16.50;7.30;;;;;;;17.66;49.23;101597.74;102065;1320;61440;-81
2022/11/07 07:55:49;;;;;;;12.80;6.20;;;;;;;17.53;49.18;101595.64;102001;1317;61420;-82
2022/11/07 07:58:15;;;;;;;16.50;5.90;;;;;;;17.42;49.00;101599.15;102014;1313;61534;-81
2022/11/07 08:00:41;;;;;;;13.70;5.90;;;;;;;17.32;49.09;101604.73;101981;1318;63407;-81
2022/11/07 08:03:08;;;;;;;17.90;6.20;;;;;;;17.27;49.15;101604.92;101873;1320;73784;-82
2022/11/07 08:05:34;;;;;;;16.40;6.10;;;;;;;17.24;49.09;101603.12;101985;1320;75655;-81
2022/11/07 08:08:00;;;;;;;14.00;5.70;;;;;;;17.23;49.10;101603.34;102190;1310;61388;-81
2022/11/07 08:10:26;;;;;;;18.30;5.80;;;;;;;17.11;48.91;101604.03;102035;1316;59637;-82
2022/11/07 08:12:51;;;;;;;18.40;5.40;;;;;;;17.02;48.97;101603.48;102115;1320;60129;-80
2022/11/07 08:15:18;;;;;;;18.00;6.30;;;;;;;17.00;48.98;101600.55;102102;1310;59552;-80
2022/11/07 08:17:43;;;;;;;16.60;6.30;;;;;;;17.02;49.06;101606.33;102065;1313;61425;-80
2022/11/07 08:20:11;;;;;;;17.00;6.30;;;;;;;17.09;49.21;101605.89;102009;1320;61296;-80
2022/11/07 08:22:36;;;;;;;22.50;6.50;;;;;;;17.16;49.36;101607.73;101884;1321;61392;-82
2022/11/07 08:25:02;;;;;;;23.60;6.40;;;;;;;17.24;49.55;101604.01;101975;1320;62225;-81
2022/11/07 08:27:28;;;;;;;18.80;6.20;;;;;;;17.33;49.87;101602.38;102063;1317;61420;-81
2022/11/07 08:29:53;;;;;;;11.30;5.60;;;;;;;17.38;49.73;101604.83;101967;1316;62028;-81
2022/11/07 08:32:19;;;;;;;11.90;5.80;;;;;;;17.42;49.67;101601.10;102088;1318;61295;-80
2022/11/07 08:34:44;;;;;;;14.60;6.00;;;;;;;17.48;49.85;101603.70;101949;1320;61439;-83
2022/11/07 08:37:10;;;;;;;12.20;6.00;;;;;;;17.52;49.74;101603.49;101964;1318;72518;-81
2022/11/07 08:39:36;;;;;;;15.80;5.80;;;;;;;17.57;49.51;101606.35;101973;1317;61363;-80
2022/11/07 08:42:01;;;;;;;10.30;5.60;;;;;;;17.61;49.69;101605.10;101877;1330;61364;-81
2022/11/07 08:44:27;;;;;;;14.00;5.50;;;;;;;17.64;49.59;101602.99;101992;1314;60210;-81
2022/11/07 08:46:52;;;;;;;12.60;6.00;;;;;;;17.65;49.51;101601.73;102095;1324;59832;-81
2022/11/07 08:49:18;;;;;;;13.20;5.30;;;;;;;17.64;49.52;101603.18;101964;1310;72437;-81
2022/11/07 08:51:43;;;;;;;12.80;5.70;;;;;;;17.68;49.51;101601.08;101893;1317;61399;-80
2022/11/07 08:54:11;;;;;;;13.10;5.40;;;;;;;17.72;49.35;101597.33;101813;1318;60484;-80
2022/11/07 08:56:36;;;;;;;11.90;5.30;;;;;;;17.76;49.30;101598.38;101966;1318;61285;-80
2022/11/07 08:59:02;;;;;;;16.90;5.80;;;;;;;17.81;49.50;101595.86;102012;1318;60045;-81
2022/11/07 09:01:27;;;;;;;13.30;6.10;;;;;;;17.83;49.29;101596.64;101995;1313;61316;-80
2022/11/07 09:03:53;;;;;;;20.10;5.70;;;;;;;17.78;49.12;101595.43;101965;1323;60595;-81
2022/11/07 09:06:18;;;;;;;20.20;6.20;;;;;;;17.75;48.89;101593.80;102044;1320;61082;-81
2022/11/07 09:08:44;;;;;;;23.50;5.90;;;;;;;17.64;48.73;101597.85;102051;1311;61323;-81
2022/11/07 09:11:10;;;;;;;37.10;7.00;;;;;;;17.51;48.71;101599.81;102016;1317;61410;-81
2022/11/07 09:13:35;;;;;;;19.40;6.00;;;;;;;17.48;48.78;101596.04;102086;1321;59841;-80
2022/11/07 09:16:02;;;;;;;14.30;5.50;;;;;;;17.50;48.92;101597.02;102140;1317;59299;-81
2022/11/07 09:18:28;;;;;;;14.70;6.00;;;;;;;17.54;48.86;101597.74;101986;1317;61307;-81
2022/11/07 09:20:53;;;;;;;15.10;6.10;;;;;;;17.59;48.94;101597.33;101896;1320;61539;-82
2022/11/07 09:23:19;;;;;;;20.50;6.20;;;;;;;17.64;48.84;101597.29;101898;1320;72939;-81
2022/11/07 09:25:45;;;;;;;23.90;6.20;;;;;;;17.68;48.80;101594.46;101912;1320;59803;-82
2022/11/07 09:28:10;;;;;;;11.90;5.20;;;;;;;17.66;48.61;101595.98;101911;1312;61254;-81
2022/11/07 09:30:36;;;;;;;13.40;5.80;;;;;;;17.64;48.53;101590.70;101973;1313;61342;-81
2022/11/07 09:33:01;;;;;;;16.70;5.90;;;;;;;17.67;48.49;101583.48;102034;1313;61336;-81
2022/11/07 09:35:27;;;;;;;17.80;6.20;;;;;;;17.69;48.35;101582.67;101983;1317;61243;-81
2022/11/07 09:37:52;;;;;;;10.90;5.60;;;;;;;17.72;48.47;101581.62;101924;1321;61322;-82
2022/11/07 09:40:18;;;;;;;11.60;5.10;;;;;;;17.72;48.35;101577.35;101959;1317;61297;-81
2022/11/07 09:43:02;;;;;;;10.60;5.10;;;;;;;17.73;48.35;101577.70;102070;1317;59780;-82
2022/11/07 09:45:27;;;;;;;18.80;6.60;;;;;;;17.75;48.34;101574.54;101915;1313;73515;-82
2022/11/07 09:47:59;;;;;;;13.60;5.70;;;;;;;17.79;48.27;101573.88;101919;1320;59846;-82
2022/11/07 09:50:34;;;;;;;15.30;5.80;;;;;;;17.68;47.95;101566.14;101930;1313;61094;-81
2022/11/07 09:53:02;;;;;;;14.50;6.10;;;;;;;17.66;48.08;101569.64;101937;1313;61203;-81
2022/11/07 09:55:30;;;;;;;17.20;6.00;;;;;;;17.62;47.89;101566.63;101955;1321;72371;-81
2022/11/07 09:58:01;;;;;;;27.40;7.10;;;;;;;17.57;47.78;101562.18;101682;1316;74415;-81
2022/11/07 10:00:29;;;;;;;25.20;6.50;;;;;;;17.63;48.56;101566.56;101865;1318;62729;-80
2022/11/07 10:02:55;;;;;;;27.30;5.60;;;;;;;17.69;48.91;101555.25;101830;1316;61291;-81
2022/11/07 10:05:36;;;;;;;20.60;6.70;;;;;;;17.71;48.96;101557.13;101985;1313;72686;-81
2022/11/07 10:08:21;;;;;;;21.90;6.10;;;;;;;17.63;48.70;101557.65;101901;1318;74422;-81
2022/11/07 10:10:59;;;;;;;16.20;5.80;;;;;;;17.61;48.59;101554.75;102081;1318;60317;-81
2022/11/07 10:13:31;;;;;;;20.80;5.80;;;;;;;17.56;48.45;101552.80;102875;1321;60196;-81
2022/11/07 10:16:11;;;;;;;18.30;5.70;;;;;;;17.61;48.58;101550.80;102459;1326;72496;-82
2022/11/07 10:18:41;;;;;;;24.60;6.00;;;;;;;17.69;48.57;101542.27;102007;1314;75573;-81
2022/11/07 10:21:08;;;;;;;20.60;6.70;;;;;;;17.74;48.57;101541.48;102012;1320;61650;-80
2022/11/07 10:24:02;;;;;;;28.00;5.80;;;;;;;17.71;48.18;101535.07;101734;1310;61328;-82
2022/11/07 10:26:28;;;;;;;14.30;5.90;;;;;;;17.67;48.30;101530.61;101520;1317;72432;-81
2022/11/07 10:29:23;;;;;;;15.40;6.40;;;;;;;17.71;48.36;101525.42;101414;1320;61336;-81
2022/11/07 10:32:08;;;;;;;14.80;5.50;;;;;;;17.70;48.09;101523.16;101532;1311;61168;-80
2022/11/07 10:35:11;;;;;;;15.80;6.20;;;;;;;17.65;47.89;101521.42;101937;1320;61229;-82
2022/11/07 10:37:37;;;;;;;17.70;6.40;;;;;;;17.66;47.97;101514.09;101591;1317;73571;-81
2022/11/07 10:40:27;;;;;;;14.20;6.20;;;;;;;17.71;47.91;101514.05;101666;1318;61450;-81
2022/11/07 10:42:52;;;;;;;13.90;6.30;;;;;;;17.74;47.81;101506.23;101603;1314;61319;-82
2022/11/07 10:45:18;;;;;;;19.00;5.80;;;;;;;17.69;47.54;101504.50;101436;1320;62856;-81
2022/11/07 10:47:58;;;;;;;16.50;5.90;;;;;;;17.70;47.57;101498.42;101530;1313;61325;-81
2022/11/07 10:50:24;;;;;;;11.60;5.50;;;;;;;17.75;47.64;101496.91;101999;1313;73866;-82
2022/11/07 10:53:02;;;;;;;10.10;5.30;;;;;;;17.79;47.68;101494.64;101956;1320;61385;-81
2022/11/07 10:55:29;;;;;;;15.00;6.20;;;;;;;17.83;47.59;101492.30;102260;1317;61343;-81
2022/11/07 10:58:03;;;;;;;12.90;6.00;;;;;;;17.86;47.75;101488.77;101919;1327;72713;-80
2022/11/07 11:00:31;;;;;;;17.00;5.80;;;;;;;17.85;47.40;101486.66;102937;1314;75480;-81
2022/11/07 11:02:57;;;;;;;13.20;5.80;;;;;;;17.71;47.03;101481.30;102927;1318;60250;-81
2022/11/07 11:05:40;;;;;;;22.40;6.30;;;;;;;17.52;46.95;101479.28;102940;1318;60627;-81
2022/11/07 11:08:14;;;;;;;12.20;5.70;;;;;;;17.38;46.75;101478.16;102375;1319;72670;-81
2022/11/07 11:10:40;;;;;;;9.40;5.00;;;;;;;17.27;46.93;101473.67;101980;1320;76080;-81
2022/11/07 11:13:05;;;;;;;9.30;5.60;;;;;;;17.15;46.83;101470.08;102268;1313;61369;-82
2022/11/07 11:15:31;;;;;;;17.50;6.00;;;;;;;17.16;47.04;101468.07;102057;1326;61306;-82
2022/11/07 11:18:05;;;;;;;16.20;6.00;;;;;;;17.23;47.18;101463.30;101970;1316;61315;-82
2022/11/07 11:20:42;;;;;;;16.60;5.80;;;;;;;17.34;47.22;101456.81;103023;1324;75768;-83
2022/11/07 11:23:21;;;;;;;17.10;6.10;;;;;;;17.36;47.13;101451.56;102955;1321;59638;-82
2022/11/07 11:25:48;;;;;;;;;;;;;;;17.39;47.08;101448.21;101979;1319;61276;-83